createdAt,value
2019-04-07T00:04:02.211Z,22.49
2019-04-07T00:09:07.934Z,22.49
2019-04-07T00:14:12.631Z,22.49
2019-04-07T00:19:17.237Z,22.51
2019-04-07T00:24:21.879Z,22.51
2019-04-07T00:29:26.501Z,22.51
2019-04-07T00:34:31.094Z,22.52
2019-04-07T00:39:35.521Z,22.52
2019-04-07T00:44:40.108Z,22.52
2019-04-07T00:49:44.385Z,22.50
2019-04-07T00:54:49.090Z,22.48
2019-04-07T00:59:54.056Z,22.48
2019-04-07T01:04:58.442Z,22.50
2019-04-07T01:10:03.598Z,22.49
2019-04-07T01:15:08.696Z,22.50
2019-04-07T01:20:13.100Z,22.50
2019-04-07T01:25:17.134Z,22.49
2019-04-07T01:30:21.453Z,22.49
2019-04-07T01:35:25.663Z,22.49
2019-04-07T01:40:29.903Z,22.39
2019-04-07T01:45:52.462Z,22.39
2019-04-07T01:51:14.533Z,22.47
2019-04-07T01:56:27.276Z,22.46
2019-04-07T02:01:43.911Z,22.47
2019-04-07T02:07:13.395Z,22.46
2019-04-07T02:12:40.154Z,22.47
2019-04-07T02:18:02.474Z,22.46
2019-04-07T02:23:15.336Z,22.44
2019-04-07T02:28:25.498Z,22.46
2019-04-07T02:33:47.176Z,22.46
2019-04-07T02:39:17.181Z,22.44
2019-04-07T02:44:46.979Z,22.43
2019-04-07T02:50:16.240Z,22.42
2019-04-07T02:55:30.062Z,22.43
2019-04-07T03:00:44.903Z,22.44
2019-04-07T03:05:59.717Z,22.43
2019-04-07T03:11:25.957Z,22.43
2019-04-07T03:16:44.830Z,22.42
2019-04-07T03:21:59.562Z,22.42
2019-04-07T03:27:22.632Z,22.42
2019-04-07T03:32:46.786Z,22.42
2019-04-07T03:38:12.651Z,22.42
2019-04-07T03:43:23.973Z,22.43
2019-04-07T03:48:38.437Z,22.43
2019-04-07T03:54:10.679Z,22.43
2019-04-07T03:59:40.613Z,22.34
2019-04-07T04:04:50.148Z,22.42
2019-04-07T04:10:17.347Z,22.42
2019-04-07T04:15:25.185Z,22.42
2019-04-07T04:20:30.217Z,22.42
2019-04-07T04:25:34.566Z,22.40
2019-04-07T04:30:38.944Z,22.33
2019-04-07T04:35:44.163Z,22.40
2019-04-07T04:40:49.304Z,22.40
2019-04-07T04:45:53.783Z,22.39
2019-04-07T04:50:58.645Z,22.32
2019-04-07T04:56:03.023Z,22.27
2019-04-07T05:01:07.243Z,22.27
2019-04-07T05:06:11.892Z,22.23
2019-04-07T05:11:16.092Z,22.15
2019-04-07T05:16:21.354Z,22.12
2019-04-07T05:21:26.162Z,22.12
2019-04-07T05:26:30.330Z,22.07
2019-04-07T05:31:34.775Z,22.04
2019-04-07T05:36:38.987Z,22.02
2019-04-07T05:41:43.004Z,22.00
2019-04-07T05:46:49.466Z,21.98
2019-04-07T05:51:53.395Z,21.96
2019-04-07T05:57:00.394Z,21.92
2019-04-07T06:02:03.909Z,21.92
2019-04-07T06:07:09.018Z,21.89
2019-04-07T06:12:13.312Z,21.89
2019-04-07T06:17:17.388Z,21.86
2019-04-07T06:22:22.011Z,21.85
2019-04-07T06:27:29.467Z,21.84
2019-04-07T06:32:35.164Z,21.84
2019-04-07T06:37:38.665Z,21.81
2019-04-07T06:42:45.676Z,21.79
2019-04-07T06:47:53.520Z,21.78
2019-04-07T06:53:01.192Z,21.78
2019-04-07T06:58:25.694Z,21.75
2019-04-07T07:04:00.838Z,19.18
2019-04-07T07:09:29.093Z,19.18
2019-04-07T07:14:44.922Z,18.14
2019-04-07T07:19:59.097Z,19.91
2019-04-07T07:25:03.117Z,20.54
2019-04-07T07:30:07.782Z,20.72
2019-04-07T07:35:14.474Z,20.81
2019-04-07T07:40:18.455Z,20.81
2019-04-07T07:45:22.923Z,20.89
2019-04-07T07:50:28.352Z,20.97
2019-04-07T07:55:36.512Z,20.99
2019-04-07T08:00:41.563Z,21.04
2019-04-07T08:05:44.534Z,21.10
2019-04-07T08:10:48.923Z,21.15
2019-04-07T08:15:54.623Z,21.16
2019-04-07T08:20:58.995Z,21.16
2019-04-07T08:26:02.985Z,21.19
2019-04-07T08:31:07.154Z,21.20
2019-04-07T08:36:12.954Z,21.20
2019-04-07T08:41:16.937Z,21.20
2019-04-07T08:46:21.034Z,21.23
2019-04-07T08:51:27.480Z,21.25
2019-04-07T08:56:30.998Z,21.26
2019-04-07T09:01:35.026Z,21.22
2019-04-07T09:06:39.608Z,21.22
2019-04-07T09:11:43.975Z,21.21
2019-04-07T09:17:10.556Z,21.20
2019-04-07T09:22:51.645Z,21.19
2019-04-07T09:28:10.089Z,21.19
2019-04-07T09:33:30.925Z,21.20
2019-04-07T09:38:52.404Z,21.24
2019-04-07T09:44:24.321Z,21.29
2019-04-07T09:49:55.736Z,21.31
2019-04-07T09:55:09.703Z,21.31
2019-04-07T10:00:37.069Z,21.32
2019-04-07T10:06:00.792Z,21.32
2019-04-07T10:11:42.098Z,21.34
2019-04-07T10:17:05.316Z,21.38
2019-04-07T10:22:34.848Z,21.38
2019-04-07T10:28:00.972Z,21.47
2019-04-07T10:33:27.213Z,21.49
2019-04-07T10:38:42.844Z,21.51
2019-04-07T10:44:07.405Z,21.53
2019-04-07T10:49:22.684Z,21.56
2019-04-07T10:54:41.518Z,21.62
2019-04-07T11:00:01.303Z,21.62
2019-04-07T11:05:32.692Z,21.62
2019-04-07T11:10:55.853Z,21.61
2019-04-07T11:16:10.816Z,21.61
2019-04-07T11:21:53.016Z,21.69
2019-04-07T11:27:14.936Z,21.64
2019-04-07T11:32:28.888Z,21.64
2019-04-07T11:37:45.940Z,21.67
2019-04-07T11:43:08.759Z,21.67
2019-04-07T11:48:38.337Z,21.35
2019-04-07T11:54:18.104Z,21.27
2019-04-07T11:59:41.322Z,21.27
2019-04-07T12:05:05.432Z,21.29
2019-04-07T12:10:31.850Z,21.29
2019-04-07T12:16:01.993Z,21.39
2019-04-07T12:21:20.100Z,21.41
2019-04-07T12:26:39.484Z,21.32
2019-04-07T12:31:57.789Z,21.37
2019-04-07T12:37:10.389Z,21.37
2019-04-07T12:42:38.543Z,21.49
2019-04-07T12:48:04.677Z,21.72
2019-04-07T12:53:21.892Z,21.80
2019-04-07T12:58:34.484Z,21.80
2019-04-07T13:03:57.475Z,21.90
2019-04-07T13:09:29.731Z,21.97
2019-04-07T13:14:59.046Z,21.97
2019-04-07T13:20:22.188Z,21.93
2019-04-07T13:25:34.880Z,21.98
2019-04-07T13:30:54.808Z,21.95
2019-04-07T13:36:21.429Z,21.97
2019-04-07T13:41:44.226Z,22.01
2019-04-07T13:46:50.635Z,22.01
2019-04-07T13:52:11.776Z,22.05
2019-04-07T13:57:36.007Z,22.04
2019-04-07T14:02:57.141Z,22.06
2019-04-07T14:08:10.264Z,22.06
2019-04-07T14:13:27.865Z,22.04
2019-04-07T14:18:54.586Z,22.05
2019-04-07T14:24:18.621Z,22.06
2019-04-07T14:29:41.626Z,22.04
2019-04-07T14:35:07.476Z,22.06
2019-04-07T14:40:38.783Z,22.07
2019-04-07T14:45:52.628Z,22.06
2019-04-07T14:51:28.434Z,22.05
2019-04-07T14:56:54.341Z,22.05
2019-04-07T15:02:00.845Z,22.05
2019-04-07T15:07:21.580Z,22.04
2019-04-07T15:12:31.423Z,22.05
2019-04-07T15:17:36.962Z,22.03
2019-04-07T15:22:43.979Z,22.03
2019-04-07T15:27:47.729Z,22.01
2019-04-07T15:32:51.785Z,22.03
2019-04-07T15:37:55.933Z,22.03
2019-04-07T15:43:03.863Z,22.05
2019-04-07T15:48:06.050Z,22.08
2019-04-07T15:53:13.454Z,22.08
2019-04-07T15:58:16.955Z,22.17
2019-04-07T16:03:21.249Z,22.20
2019-04-07T16:08:27.245Z,22.25
2019-04-07T16:13:31.731Z,22.27
2019-04-07T16:18:39.482Z,22.27
2019-04-07T16:23:42.925Z,22.34
2019-04-07T16:28:47.079Z,22.33
2019-04-07T16:33:51.856Z,22.33
2019-04-07T16:38:56.508Z,22.35
2019-04-07T16:44:04.781Z,22.38
2019-04-07T16:49:11.044Z,22.38
2019-04-07T16:54:14.370Z,22.36
2019-04-07T16:59:19.423Z,22.37
2019-04-07T17:04:24.548Z,22.39
2019-04-07T17:09:29.342Z,22.55
2019-04-07T17:14:35.824Z,22.58
2019-04-07T17:19:40.430Z,22.58
2019-04-07T17:24:45.322Z,22.58
2019-04-07T17:29:53.552Z,22.58
2019-04-07T17:34:56.149Z,22.60
2019-04-07T17:40:12.455Z,22.54
2019-04-07T17:45:30.816Z,22.54
2019-04-07T17:50:53.380Z,22.55
2019-04-07T17:56:20.447Z,22.55
2019-04-07T18:01:41.032Z,22.61
2019-04-07T18:07:20.132Z,22.54
2019-04-07T18:12:49.213Z,22.54
2019-04-07T18:18:08.372Z,22.63
2019-04-07T18:23:37.133Z,22.62
2019-04-07T18:28:59.717Z,22.61
2019-04-07T18:34:23.956Z,22.62
2019-04-07T18:39:44.411Z,22.62
2019-04-07T18:45:23.916Z,22.61
2019-04-07T18:50:39.662Z,22.63
2019-04-07T18:56:01.475Z,22.56
2019-04-07T19:01:17.057Z,22.65
2019-04-07T19:06:26.469Z,22.64
2019-04-07T19:12:05.077Z,22.64
2019-04-07T19:17:23.423Z,22.63
2019-04-07T19:22:58.193Z,22.63
2019-04-07T19:28:21.413Z,22.63
2019-04-07T19:33:47.485Z,22.63
2019-04-07T19:39:14.683Z,22.63
2019-04-07T19:44:46.275Z,22.62
2019-04-07T19:50:11.146Z,22.61
2019-04-07T19:55:32.766Z,22.59
2019-04-07T20:00:55.326Z,22.57
2019-04-07T20:06:16.998Z,22.57
2019-04-07T20:11:43.732Z,22.57
2019-04-07T20:17:06.505Z,22.56
2019-04-07T20:22:30.691Z,22.55
2019-04-07T20:28:08.964Z,22.55
2019-04-07T20:33:39.384Z,22.55
2019-04-07T20:38:48.557Z,22.54
2019-04-07T20:44:21.075Z,22.54
2019-04-07T20:49:50.643Z,22.54
2019-04-07T20:55:08.087Z,22.54
2019-04-07T21:00:56.030Z,22.54
2019-04-07T21:06:08.489Z,22.67
2019-04-07T21:11:29.045Z,22.70
2019-04-07T21:17:02.409Z,22.69
2019-04-07T21:22:16.887Z,22.71
2019-04-07T21:27:48.933Z,22.71
2019-04-07T21:33:11.107Z,22.71
2019-04-07T21:38:43.384Z,22.71
2019-04-07T21:44:07.160Z,22.72
2019-04-07T21:49:26.368Z,22.71
2019-04-07T21:54:40.888Z,22.73
2019-04-07T22:00:01.325Z,22.75
2019-04-07T22:05:27.121Z,22.75
2019-04-07T22:10:31.896Z,22.74
2019-04-07T22:15:45.773Z,22.74
2019-04-07T22:20:43.217Z,22.72
2019-04-07T22:25:52.229Z,22.72
2019-04-07T22:30:57.269Z,22.74
2019-04-07T22:36:01.885Z,22.74
2019-04-07T22:41:07.394Z,22.76
2019-04-07T22:46:17.572Z,22.67
2019-04-07T22:51:18.807Z,22.74
2019-04-07T22:56:23.080Z,22.76
2019-04-07T23:01:27.332Z,22.76
2019-04-07T23:06:31.476Z,22.78
2019-04-07T23:11:35.720Z,22.77
2019-04-07T23:16:40.200Z,22.76
2019-04-07T23:21:44.404Z,22.77
2019-04-07T23:26:48.875Z,22.77
2019-04-07T23:31:53.507Z,22.77
2019-04-07T23:36:57.806Z,22.76
2019-04-07T23:42:02.795Z,22.76
2019-04-07T23:47:24.903Z,22.76
2019-04-07T23:52:29.359Z,22.74
2019-04-07T23:57:33.622Z,22.72
